sensor_id;sensor_type;location;lat;lon;timestamp;P1;durP1;ratioP1;P2;durP2;ratioP2
15502;SDS011;7853;52.186;5.948;2023-04-25T00:03:30;4.02;;;1.75;;
15502;SDS011;7853;52.186;5.948;2023-04-25T00:03:30;3.71;;;1.54;;
15502;SDS011;7853;52.186;5.948;2023-04-25T00:03:30;4.22;;;1.70;;
15502;SDS011;7853;52.186;5.948;2023-04-25T00:04:14;3.42;;;1.60;;
15502;SDS011;7853;52.186;5.948;2023-04-25T00:05:24;4.07;;;1.58;;
15502;SDS011;7853;52.186;5.948;2023-04-25T00:06:30;5.90;;;1.76;;
15502;SDS011;7853;52.186;5.948;2023-04-25T00:07:33;4.78;;;1.80;;
15502;SDS011;7853;52.186;5.948;2023-04-25T00:08:34;5.42;;;1.94;;
15502;SDS011;7853;52.186;5.948;2023-04-25T00:09:35;3.81;;;1.54;;
15502;SDS011;7853;52.186;5.948;2023-04-25T00:10:35;4.76;;;1.77;;
15502;SDS011;7853;52.186;5.948;2023-04-25T00:11:35;5.78;;;2.28;;
15502;SDS011;7853;52.186;5.948;2023-04-25T00:12:36;4.81;;;1.69;;
15502;SDS011;7853;52.186;5.948;2023-04-25T00:13:35;4.61;;;1.58;;
15502;SDS011;7853;52.186;5.948;2023-04-25T00:14:37;4.86;;;1.61;;
15502;SDS011;7853;52.186;5.948;2023-04-25T00:15:35;4.02;;;1.53;;
15502;SDS011;7853;52.186;5.948;2023-04-25T00:16:38;6.54;;;1.80;;
15502;SDS011;7853;52.186;5.948;2023-04-25T00:17:34;5.09;;;1.76;;
15502;SDS011;7853;52.186;5.948;2023-04-25T00:18:35;5.28;;;1.69;;
15502;SDS011;7853;52.186;5.948;2023-04-25T00:19:38;5.50;;;1.97;;
15502;SDS011;7853;52.186;5.948;2023-04-25T00:20:35;5.89;;;2.06;;
15502;SDS011;7853;52.186;5.948;2023-04-25T00:21:35;6.14;;;2.09;;
15502;SDS011;7853;52.186;5.948;2023-04-25T00:22:35;4.41;;;1.79;;
15502;SDS011;7853;52.186;5.948;2023-04-25T00:23:35;4.98;;;1.87;;
15502;SDS011;7853;52.186;5.948;2023-04-25T00:24:35;5.26;;;1.77;;
15502;SDS011;7853;52.186;5.948;2023-04-25T00:25:35;4.07;;;1.69;;
15502;SDS011;7853;52.186;5.948;2023-04-25T00:26:35;4.78;;;1.78;;
15502;SDS011;7853;52.186;5.948;2023-04-25T00:27:35;3.72;;;1.43;;
15502;SDS011;7853;52.186;5.948;2023-04-25T00:28:35;4.42;;;1.82;;
15502;SDS011;7853;52.186;5.948;2023-04-25T00:29:35;4.69;;;1.71;;
15502;SDS011;7853;52.186;5.948;2023-04-25T00:30:36;4.27;;;1.91;;
15502;SDS011;7853;52.186;5.948;2023-04-25T00:31:35;5.44;;;1.80;;
15502;SDS011;7853;52.186;5.948;2023-04-25T00:32:35;5.73;;;1.73;;
15502;SDS011;7853;52.186;5.948;2023-04-25T00:33:35;3.54;;;1.75;;
15502;SDS011;7853;52.186;5.948;2023-04-25T00:34:35;3.82;;;1.64;;
15502;SDS011;7853;52.186;5.948;2023-04-25T00:35:35;4.28;;;1.67;;
15502;SDS011;7853;52.186;5.948;2023-04-25T00:36:35;4.12;;;1.92;;
15502;SDS011;7853;52.186;5.948;2023-04-25T00:37:35;4.28;;;1.71;;
15502;SDS011;7853;52.186;5.948;2023-04-25T00:38:36;3.85;;;1.67;;
15502;SDS011;7853;52.186;5.948;2023-04-25T00:39:35;5.25;;;1.86;;
15502;SDS011;7853;52.186;5.948;2023-04-25T00:40:35;4.22;;;1.82;;
15502;SDS011;7853;52.186;5.948;2023-04-25T00:41:35;4.56;;;1.65;;
15502;SDS011;7853;52.186;5.948;2023-04-25T00:42:35;4.42;;;1.89;;
15502;SDS011;7853;52.186;5.948;2023-04-25T00:43:35;4.30;;;1.74;;
15502;SDS011;7853;52.186;5.948;2023-04-25T00:44:35;5.45;;;1.90;;
15502;SDS011;7853;52.186;5.948;2023-04-25T00:45:36;3.25;;;1.61;;
15502;SDS011;7853;52.186;5.948;2023-04-25T00:46:35;5.54;;;1.69;;
15502;SDS011;7853;52.186;5.948;2023-04-25T00:47:35;4.31;;;2.01;;
15502;SDS011;7853;52.186;5.948;2023-04-25T00:48:37;3.94;;;1.77;;
15502;SDS011;7853;52.186;5.948;2023-04-25T00:49:34;5.64;;;2.19;;
15502;SDS011;7853;52.186;5.948;2023-04-25T00:50:34;5.77;;;2.13;;
15502;SDS011;7853;52.186;5.948;2023-04-25T00:51:34;4.08;;;1.70;;
15502;SDS011;7853;52.186;5.948;2023-04-25T00:52:35;3.95;;;1.82;;
15502;SDS011;7853;52.186;5.948;2023-04-25T00:53:35;5.66;;;1.73;;
15502;SDS011;7853;52.186;5.948;2023-04-25T00:54:35;4.96;;;1.71;;
15502;SDS011;7853;52.186;5.948;2023-04-25T00:55:35;4.21;;;1.79;;
15502;SDS011;7853;52.186;5.948;2023-04-25T00:56:35;4.38;;;1.70;;
15502;SDS011;7853;52.186;5.948;2023-04-25T00:57:35;4.09;;;1.63;;
15502;SDS011;7853;52.186;5.948;2023-04-25T00:58:35;4.39;;;1.74;;
15502;SDS011;7853;52.186;5.948;2023-04-25T00:59:35;4.93;;;1.90;;
15502;SDS011;7853;52.186;5.948;2023-04-25T01:00:35;3.17;;;1.74;;
15502;SDS011;7853;52.186;5.948;2023-04-25T01:01:35;3.38;;;1.74;;
15502;SDS011;7853;52.186;5.948;2023-04-25T01:02:35;3.78;;;1.87;;
15502;SDS011;7853;52.186;5.948;2023-04-25T01:03:35;4.12;;;1.67;;
15502;SDS011;7853;52.186;5.948;2023-04-25T01:04:36;5.30;;;1.79;;
15502;SDS011;7853;52.186;5.948;2023-04-25T01:05:34;3.99;;;1.72;;
15502;SDS011;7853;52.186;5.948;2023-04-25T01:06:34;6.31;;;2.13;;
15502;SDS011;7853;52.186;5.948;2023-04-25T01:07:35;3.59;;;1.60;;
15502;SDS011;7853;52.186;5.948;2023-04-25T01:08:34;4.32;;;2.26;;
15502;SDS011;7853;52.186;5.948;2023-04-25T01:09:35;5.09;;;1.92;;
15502;SDS011;7853;52.186;5.948;2023-04-25T01:10:35;4.51;;;1.94;;
15502;SDS011;7853;52.186;5.948;2023-04-25T01:11:35;3.23;;;1.81;;
15502;SDS011;7853;52.186;5.948;2023-04-25T01:12:35;4.78;;;1.96;;
15502;SDS011;7853;52.186;5.948;2023-04-25T01:13:35;4.55;;;1.99;;
15502;SDS011;7853;52.186;5.948;2023-04-25T01:14:34;5.52;;;2.08;;
15502;SDS011;7853;52.186;5.948;2023-04-25T01:15:37;4.47;;;1.73;;
15502;SDS011;7853;52.186;5.948;2023-04-25T01:16:33;5.19;;;1.88;;
15502;SDS011;7853;52.186;5.948;2023-04-25T01:17:34;5.13;;;2.12;;
15502;SDS011;7853;52.186;5.948;2023-04-25T01:18:34;4.02;;;1.81;;
15502;SDS011;7853;52.186;5.948;2023-04-25T01:19:36;4.79;;;1.89;;
15502;SDS011;7853;52.186;5.948;2023-04-25T01:20:34;5.89;;;1.80;;
15502;SDS011;7853;52.186;5.948;2023-04-25T01:21:34;5.35;;;2.03;;
15502;SDS011;7853;52.186;5.948;2023-04-25T01:22:35;4.91;;;1.90;;
15502;SDS011;7853;52.186;5.948;2023-04-25T01:23:35;7.02;;;2.04;;
15502;SDS011;7853;52.186;5.948;2023-04-25T01:24:35;5.25;;;1.75;;
15502;SDS011;7853;52.186;5.948;2023-04-25T01:25:37;5.97;;;1.95;;
15502;SDS011;7853;52.186;5.948;2023-04-25T01:26:33;4.97;;;1.84;;
15502;SDS011;7853;52.186;5.948;2023-04-25T01:27:34;5.52;;;2.08;;
15502;SDS011;7853;52.186;5.948;2023-04-25T01:28:35;5.33;;;1.78;;
15502;SDS011;7853;52.186;5.948;2023-04-25T01:29:34;6.32;;;1.68;;
15502;SDS011;7853;52.186;5.948;2023-04-25T01:30:34;5.27;;;1.86;;
15502;SDS011;7853;52.186;5.948;2023-04-25T01:31:35;5.33;;;2.21;;
15502;SDS011;7853;52.186;5.948;2023-04-25T01:32:35;6.59;;;1.85;;
15502;SDS011;7853;52.186;5.948;2023-04-25T01:33:35;5.27;;;1.83;;
15502;SDS011;7853;52.186;5.948;2023-04-25T01:34:35;4.66;;;1.65;;
15502;SDS011;7853;52.186;5.948;2023-04-25T01:35:35;4.84;;;1.81;;
15502;SDS011;7853;52.186;5.948;2023-04-25T01:36:35;6.70;;;1.99;;
15502;SDS011;7853;52.186;5.948;2023-04-25T01:37:35;4.49;;;1.71;;
15502;SDS011;7853;52.186;5.948;2023-04-25T01:38:35;5.79;;;1.77;;
15502;SDS011;7853;52.186;5.948;2023-04-25T01:39:35;4.64;;;1.78;;
15502;SDS011;7853;52.186;5.948;2023-04-25T01:40:35;6.73;;;1.93;;
15502;SDS011;7853;52.186;5.948;2023-04-25T01:41:35;4.61;;;1.81;;
15502;SDS011;7853;52.186;5.948;2023-04-25T01:42:35;5.65;;;1.67;;
15502;SDS011;7853;52.186;5.948;2023-04-25T01:43:35;4.29;;;2.07;;
15502;SDS011;7853;52.186;5.948;2023-04-25T01:44:35;5.73;;;2.12;;
15502;SDS011;7853;52.186;5.948;2023-04-25T01:45:35;3.84;;;1.65;;
15502;SDS011;7853;52.186;5.948;2023-04-25T01:46:35;5.84;;;1.99;;
15502;SDS011;7853;52.186;5.948;2023-04-25T01:47:35;3.94;;;1.61;;
15502;SDS011;7853;52.186;5.948;2023-04-25T01:48:37;4.63;;;2.05;;
15502;SDS011;7853;52.186;5.948;2023-04-25T01:49:33;5.50;;;2.10;;
15502;SDS011;7853;52.186;5.948;2023-04-25T01:50:34;5.46;;;1.86;;
15502;SDS011;7853;52.186;5.948;2023-04-25T01:51:34;5.85;;;2.42;;
15502;SDS011;7853;52.186;5.948;2023-04-25T01:52:35;4.68;;;1.73;;
15502;SDS011;7853;52.186;5.948;2023-04-25T01:53:35;4.57;;;1.99;;
15502;SDS011;7853;52.186;5.948;2023-04-25T01:54:34;7.80;;;2.17;;
15502;SDS011;7853;52.186;5.948;2023-04-25T01:55:35;4.84;;;1.86;;
15502;SDS011;7853;52.186;5.948;2023-04-25T01:56:37;4.47;;;1.64;;
15502;SDS011;7853;52.186;5.948;2023-04-25T01:57:33;6.21;;;1.80;;
15502;SDS011;7853;52.186;5.948;2023-04-25T01:58:34;5.26;;;1.87;;
15502;SDS011;7853;52.186;5.948;2023-04-25T01:59:34;4.27;;;1.69;;
15502;SDS011;7853;52.186;5.948;2023-04-25T02:00:35;3.97;;;1.70;;
15502;SDS011;7853;52.186;5.948;2023-04-25T02:01:34;6.43;;;1.94;;
15502;SDS011;7853;52.186;5.948;2023-04-25T02:02:35;5.52;;;2.24;;
15502;SDS011;7853;52.186;5.948;2023-04-25T02:03:34;5.76;;;2.05;;
15502;SDS011;7853;52.186;5.948;2023-04-25T02:04:35;4.86;;;2.07;;
15502;SDS011;7853;52.186;5.948;2023-04-25T02:05:35;6.13;;;1.84;;
15502;SDS011;7853;52.186;5.948;2023-04-25T02:06:35;5.41;;;2.13;;
15502;SDS011;7853;52.186;5.948;2023-04-25T02:07:35;4.27;;;1.99;;
15502;SDS011;7853;52.186;5.948;2023-04-25T02:08:35;6.41;;;2.23;;
15502;SDS011;7853;52.186;5.948;2023-04-25T02:09:35;5.64;;;2.13;;
15502;SDS011;7853;52.186;5.948;2023-04-25T02:10:35;3.26;;;1.78;;
15502;SDS011;7853;52.186;5.948;2023-04-25T02:11:34;5.58;;;1.84;;
15502;SDS011;7853;52.186;5.948;2023-04-25T02:12:35;5.42;;;1.90;;
15502;SDS011;7853;52.186;5.948;2023-04-25T02:13:35;5.91;;;2.12;;
15502;SDS011;7853;52.186;5.948;2023-04-25T02:14:35;6.56;;;2.26;;
15502;SDS011;7853;52.186;5.948;2023-04-25T02:15:35;5.53;;;2.43;;
15502;SDS011;7853;52.186;5.948;2023-04-25T02:16:35;4.61;;;1.88;;
15502;SDS011;7853;52.186;5.948;2023-04-25T02:17:35;4.95;;;1.82;;
15502;SDS011;7853;52.186;5.948;2023-04-25T02:18:35;4.82;;;1.98;;
15502;SDS011;7853;52.186;5.948;2023-04-25T02:19:35;6.04;;;1.76;;
15502;SDS011;7853;52.186;5.948;2023-04-25T02:20:35;4.66;;;1.74;;
15502;SDS011;7853;52.186;5.948;2023-04-25T02:21:35;5.92;;;2.05;;
15502;SDS011;7853;52.186;5.948;2023-04-25T02:22:35;6.57;;;2.45;;
15502;SDS011;7853;52.186;5.948;2023-04-25T02:23:35;5.18;;;2.00;;
15502;SDS011;7853;52.186;5.948;2023-04-25T02:24:35;5.97;;;1.92;;
15502;SDS011;7853;52.186;5.948;2023-04-25T02:25:37;4.62;;;1.95;;
15502;SDS011;7853;52.186;5.948;2023-04-25T02:26:34;6.54;;;2.08;;
15502;SDS011;7853;52.186;5.948;2023-04-25T02:27:35;3.84;;;1.85;;
15502;SDS011;7853;52.186;5.948;2023-04-25T02:28:35;5.65;;;1.94;;
15502;SDS011;7853;52.186;5.948;2023-04-25T02:29:35;4.63;;;1.73;;
15502;SDS011;7853;52.186;5.948;2023-04-25T02:30:35;3.87;;;1.89;;
15502;SDS011;7853;52.186;5.948;2023-04-25T02:31:35;4.36;;;1.85;;
15502;SDS011;7853;52.186;5.948;2023-04-25T02:32:34;3.91;;;1.81;;
15502;SDS011;7853;52.186;5.948;2023-04-25T02:33:35;5.19;;;2.12;;
15502;SDS011;7853;52.186;5.948;2023-04-25T02:34:34;4.34;;;1.70;;
15502;SDS011;7853;52.186;5.948;2023-04-25T02:35:35;4.96;;;1.96;;
15502;SDS011;7853;52.186;5.948;2023-04-25T02:36:35;4.09;;;1.88;;
15502;SDS011;7853;52.186;5.948;2023-04-25T02:37:35;5.47;;;1.77;;
15502;SDS011;7853;52.186;5.948;2023-04-25T02:38:35;4.45;;;1.70;;
15502;SDS011;7853;52.186;5.948;2023-04-25T02:39:35;6.20;;;1.95;;
15502;SDS011;7853;52.186;5.948;2023-04-25T02:40:35;6.26;;;1.97;;
15502;SDS011;7853;52.186;5.948;2023-04-25T02:41:35;6.20;;;2.08;;
15502;SDS011;7853;52.186;5.948;2023-04-25T02:42:34;5.42;;;1.97;;
15502;SDS011;7853;52.186;5.948;2023-04-25T02:43:34;4.20;;;2.17;;
15502;SDS011;7853;52.186;5.948;2023-04-25T02:44:37;5.70;;;1.79;;
15502;SDS011;7853;52.186;5.948;2023-04-25T02:45:34;5.39;;;1.91;;
15502;SDS011;7853;52.186;5.948;2023-04-25T02:46:34;4.44;;;1.90;;
15502;SDS011;7853;52.186;5.948;2023-04-25T02:47:35;4.05;;;1.93;;
15502;SDS011;7853;52.186;5.948;2023-04-25T02:48:34;4.35;;;1.87;;
15502;SDS011;7853;52.186;5.948;2023-04-25T02:49:34;4.24;;;1.84;;
15502;SDS011;7853;52.186;5.948;2023-04-25T02:50:34;5.72;;;1.95;;
15502;SDS011;7853;52.186;5.948;2023-04-25T02:51:35;5.74;;;1.90;;
15502;SDS011;7853;52.186;5.948;2023-04-25T02:52:35;4.88;;;1.93;;
15502;SDS011;7853;52.186;5.948;2023-04-25T02:53:35;5.63;;;2.25;;
15502;SDS011;7853;52.186;5.948;2023-04-25T02:54:35;5.06;;;1.69;;
15502;SDS011;7853;52.186;5.948;2023-04-25T02:55:35;6.54;;;1.86;;
15502;SDS011;7853;52.186;5.948;2023-04-25T02:56:34;4.70;;;1.89;;
15502;SDS011;7853;52.186;5.948;2023-04-25T02:57:36;4.36;;;1.82;;
15502;SDS011;7853;52.186;5.948;2023-04-25T02:58:35;5.71;;;1.81;;
15502;SDS011;7853;52.186;5.948;2023-04-25T02:59:35;5.13;;;2.09;;
15502;SDS011;7853;52.186;5.948;2023-04-25T03:00:34;4.47;;;1.87;;
15502;SDS011;7853;52.186;5.948;2023-04-25T03:01:34;3.69;;;1.92;;
15502;SDS011;7853;52.186;5.948;2023-04-25T03:02:35;4.47;;;1.84;;
15502;SDS011;7853;52.186;5.948;2023-04-25T03:03:35;5.27;;;1.98;;
15502;SDS011;7853;52.186;5.948;2023-04-25T03:04:34;5.08;;;1.90;;
15502;SDS011;7853;52.186;5.948;2023-04-25T03:05:34;5.96;;;2.24;;
15502;SDS011;7853;52.186;5.948;2023-04-25T03:06:34;6.36;;;1.92;;
15502;SDS011;7853;52.186;5.948;2023-04-25T03:07:34;4.94;;;1.85;;
15502;SDS011;7853;52.186;5.948;2023-04-25T03:08:35;4.56;;;1.89;;
15502;SDS011;7853;52.186;5.948;2023-04-25T03:09:34;5.47;;;1.76;;
15502;SDS011;7853;52.186;5.948;2023-04-25T03:10:35;6.77;;;2.10;;
15502;SDS011;7853;52.186;5.948;2023-04-25T03:11:35;4.21;;;1.85;;
15502;SDS011;7853;52.186;5.948;2023-04-25T03:12:35;4.76;;;2.13;;
15502;SDS011;7853;52.186;5.948;2023-04-25T03:13:35;6.94;;;1.84;;
15502;SDS011;7853;52.186;5.948;2023-04-25T03:14:35;4.40;;;1.86;;
15502;SDS011;7853;52.186;5.948;2023-04-25T03:15:34;3.82;;;1.77;;
15502;SDS011;7853;52.186;5.948;2023-04-25T03:16:35;4.42;;;1.96;;
15502;SDS011;7853;52.186;5.948;2023-04-25T03:17:35;3.80;;;1.82;;
15502;SDS011;7853;52.186;5.948;2023-04-25T03:18:35;5.25;;;1.92;;
15502;SDS011;7853;52.186;5.948;2023-04-25T03:19:35;4.81;;;2.08;;
15502;SDS011;7853;52.186;5.948;2023-04-25T03:20:34;4.90;;;1.95;;
15502;SDS011;7853;52.186;5.948;2023-04-25T03:21:35;4.30;;;1.93;;
15502;SDS011;7853;52.186;5.948;2023-04-25T03:22:34;4.15;;;2.00;;
15502;SDS011;7853;52.186;5.948;2023-04-25T03:23:34;3.20;;;1.80;;
15502;SDS011;7853;52.186;5.948;2023-04-25T03:24:37;5.15;;;2.04;;
15502;SDS011;7853;52.186;5.948;2023-04-25T03:25:36;6.61;;;2.13;;
15502;SDS011;7853;52.186;5.948;2023-04-25T03:26:34;6.30;;;2.19;;
15502;SDS011;7853;52.186;5.948;2023-04-25T03:27:34;5.64;;;2.24;;
15502;SDS011;7853;52.186;5.948;2023-04-25T03:28:34;5.01;;;1.93;;
15502;SDS011;7853;52.186;5.948;2023-04-25T03:29:37;4.21;;;1.91;;
15502;SDS011;7853;52.186;5.948;2023-04-25T03:30:33;4.76;;;1.94;;
15502;SDS011;7853;52.186;5.948;2023-04-25T03:31:34;4.39;;;1.93;;
15502;SDS011;7853;52.186;5.948;2023-04-25T03:32:34;4.98;;;1.94;;
15502;SDS011;7853;52.186;5.948;2023-04-25T03:33:34;5.85;;;2.21;;
15502;SDS011;7853;52.186;5.948;2023-04-25T03:34:35;5.62;;;2.22;;
15502;SDS011;7853;52.186;5.948;2023-04-25T03:35:35;4.09;;;1.82;;
15502;SDS011;7853;52.186;5.948;2023-04-25T03:36:35;5.88;;;2.32;;
15502;SDS011;7853;52.186;5.948;2023-04-25T03:37:35;4.47;;;2.03;;
15502;SDS011;7853;52.186;5.948;2023-04-25T03:38:35;4.21;;;1.77;;
15502;SDS011;7853;52.186;5.948;2023-04-25T03:39:35;6.39;;;2.02;;
15502;SDS011;7853;52.186;5.948;2023-04-25T03:40:35;5.75;;;2.11;;
15502;SDS011;7853;52.186;5.948;2023-04-25T03:41:34;4.84;;;1.90;;
15502;SDS011;7853;52.186;5.948;2023-04-25T03:42:34;4.41;;;1.81;;
15502;SDS011;7853;52.186;5.948;2023-04-25T03:43:35;5.13;;;1.95;;
15502;SDS011;7853;52.186;5.948;2023-04-25T03:44:34;4.92;;;1.97;;
15502;SDS011;7853;52.186;5.948;2023-04-25T03:45:35;5.43;;;1.89;;
15502;SDS011;7853;52.186;5.948;2023-04-25T03:46:35;4.85;;;1.99;;
15502;SDS011;7853;52.186;5.948;2023-04-25T03:47:35;5.98;;;2.14;;
15502;SDS011;7853;52.186;5.948;2023-04-25T03:48:35;5.98;;;1.83;;
15502;SDS011;7853;52.186;5.948;2023-04-25T03:49:35;5.22;;;1.80;;
15502;SDS011;7853;52.186;5.948;2023-04-25T03:50:36;4.78;;;1.78;;
15502;SDS011;7853;52.186;5.948;2023-04-25T03:51:34;5.11;;;1.88;;
15502;SDS011;7853;52.186;5.948;2023-04-25T03:52:34;5.07;;;1.74;;
15502;SDS011;7853;52.186;5.948;2023-04-25T03:53:34;6.29;;;2.40;;
15502;SDS011;7853;52.186;5.948;2023-04-25T03:54:35;3.64;;;1.68;;
15502;SDS011;7853;52.186;5.948;2023-04-25T03:55:34;6.55;;;2.42;;
15502;SDS011;7853;52.186;5.948;2023-04-25T03:56:34;4.40;;;1.95;;
15502;SDS011;7853;52.186;5.948;2023-04-25T03:57:35;4.88;;;1.97;;
15502;SDS011;7853;52.186;5.948;2023-04-25T03:58:34;5.86;;;2.23;;
15502;SDS011;7853;52.186;5.948;2023-04-25T03:59:34;5.07;;;2.02;;
15502;SDS011;7853;52.186;5.948;2023-04-25T04:00:35;3.34;;;1.84;;
15502;SDS011;7853;52.186;5.948;2023-04-25T04:01:35;3.94;;;1.92;;
15502;SDS011;7853;52.186;5.948;2023-04-25T04:02:35;5.07;;;2.05;;
15502;SDS011;7853;52.186;5.948;2023-04-25T04:03:35;4.77;;;1.96;;
15502;SDS011;7853;52.186;5.948;2023-04-25T04:04:35;4.62;;;1.67;;
15502;SDS011;7853;52.186;5.948;2023-04-25T04:05:34;5.78;;;2.04;;
15502;SDS011;7853;52.186;5.948;2023-04-25T04:06:35;5.36;;;1.84;;
15502;SDS011;7853;52.186;5.948;2023-04-25T04:07:35;5.44;;;1.83;;
15502;SDS011;7853;52.186;5.948;2023-04-25T04:08:35;4.97;;;1.83;;
15502;SDS011;7853;52.186;5.948;2023-04-25T04:09:35;4.73;;;2.21;;
15502;SDS011;7853;52.186;5.948;2023-04-25T04:10:36;4.83;;;1.78;;
15502;SDS011;7853;52.186;5.948;2023-04-25T04:11:35;4.12;;;1.87;;
15502;SDS011;7853;52.186;5.948;2023-04-25T04:12:37;3.91;;;1.74;;
15502;SDS011;7853;52.186;5.948;2023-04-25T04:13:33;4.71;;;1.98;;
15502;SDS011;7853;52.186;5.948;2023-04-25T04:14:34;5.50;;;1.84;;
15502;SDS011;7853;52.186;5.948;2023-04-25T04:15:35;6.84;;;1.95;;
15502;SDS011;7853;52.186;5.948;2023-04-25T04:16:34;4.92;;;1.94;;
15502;SDS011;7853;52.186;5.948;2023-04-25T04:17:35;4.26;;;1.88;;
15502;SDS011;7853;52.186;5.948;2023-04-25T04:18:35;5.61;;;1.80;;
15502;SDS011;7853;52.186;5.948;2023-04-25T04:19:34;5.28;;;1.83;;
15502;SDS011;7853;52.186;5.948;2023-04-25T04:20:35;4.02;;;1.63;;
15502;SDS011;7853;52.186;5.948;2023-04-25T04:21:34;3.86;;;1.86;;
15502;SDS011;7853;52.186;5.948;2023-04-25T04:22:35;4.89;;;1.60;;
15502;SDS011;7853;52.186;5.948;2023-04-25T04:23:35;3.82;;;1.83;;
15502;SDS011;7853;52.186;5.948;2023-04-25T04:24:34;2.65;;;1.63;;
15502;SDS011;7853;52.186;5.948;2023-04-25T04:25:34;3.48;;;1.23;;
15502;SDS011;7853;52.186;5.948;2023-04-25T04:26:34;3.58;;;1.38;;
15502;SDS011;7853;52.186;5.948;2023-04-25T04:27:34;4.61;;;1.79;;
15502;SDS011;7853;52.186;5.948;2023-04-25T04:28:35;6.03;;;1.98;;
15502;SDS011;7853;52.186;5.948;2023-04-25T04:29:35;3.82;;;1.68;;
15502;SDS011;7853;52.186;5.948;2023-04-25T04:30:35;3.99;;;1.55;;
15502;SDS011;7853;52.186;5.948;2023-04-25T04:31:34;4.85;;;1.62;;
15502;SDS011;7853;52.186;5.948;2023-04-25T04:32:34;3.15;;;1.47;;
15502;SDS011;7853;52.186;5.948;2023-04-25T04:33:34;4.26;;;1.63;;
15502;SDS011;7853;52.186;5.948;2023-04-25T04:34:34;5.24;;;1.65;;
15502;SDS011;7853;52.186;5.948;2023-04-25T04:35:35;3.47;;;1.51;;
15502;SDS011;7853;52.186;5.948;2023-04-25T04:36:36;3.48;;;1.36;;
15502;SDS011;7853;52.186;5.948;2023-04-25T04:37:35;3.55;;;1.36;;
15502;SDS011;7853;52.186;5.948;2023-04-25T04:38:34;4.70;;;1.53;;
15502;SDS011;7853;52.186;5.948;2023-04-25T04:39:34;4.87;;;1.62;;
15502;SDS011;7853;52.186;5.948;2023-04-25T04:40:35;5.55;;;1.80;;
15502;SDS011;7853;52.186;5.948;2023-04-25T04:41:34;4.56;;;1.81;;
15502;SDS011;7853;52.186;5.948;2023-04-25T04:42:35;6.30;;;1.65;;
15502;SDS011;7853;52.186;5.948;2023-04-25T04:43:35;4.23;;;1.39;;
15502;SDS011;7853;52.186;5.948;2023-04-25T04:44:35;3.09;;;1.56;;
15502;SDS011;7853;52.186;5.948;2023-04-25T04:45:35;3.66;;;1.73;;
15502;SDS011;7853;52.186;5.948;2023-04-25T04:46:35;3.15;;;1.44;;
15502;SDS011;7853;52.186;5.948;2023-04-25T04:47:34;4.19;;;1.51;;
15502;SDS011;7853;52.186;5.948;2023-04-25T04:48:34;3.58;;;1.61;;
15502;SDS011;7853;52.186;5.948;2023-04-25T04:49:34;4.80;;;1.55;;
15502;SDS011;7853;52.186;5.948;2023-04-25T04:50:35;4.11;;;1.58;;
15502;SDS011;7853;52.186;5.948;2023-04-25T04:51:35;3.64;;;1.52;;
15502;SDS011;7853;52.186;5.948;2023-04-25T04:52:35;3.27;;;1.51;;
15502;SDS011;7853;52.186;5.948;2023-04-25T04:53:35;2.91;;;1.52;;
15502;SDS011;7853;52.186;5.948;2023-04-25T04:54:35;3.97;;;1.73;;
15502;SDS011;7853;52.186;5.948;2023-04-25T04:55:34;3.15;;;1.54;;
15502;SDS011;7853;52.186;5.948;2023-04-25T04:56:35;3.78;;;1.71;;
15502;SDS011;7853;52.186;5.948;2023-04-25T04:57:35;5.48;;;2.03;;
15502;SDS011;7853;52.186;5.948;2023-04-25T04:58:35;3.27;;;1.54;;
15502;SDS011;7853;52.186;5.948;2023-04-25T04:59:35;4.25;;;1.68;;
15502;SDS011;7853;52.186;5.948;2023-04-25T05:00:35;4.10;;;1.55;;
15502;SDS011;7853;52.186;5.948;2023-04-25T05:01:35;2.84;;;1.64;;
15502;SDS011;7853;52.186;5.948;2023-04-25T05:02:35;3.23;;;1.65;;
15502;SDS011;7853;52.186;5.948;2023-04-25T05:03:35;3.21;;;1.75;;
15502;SDS011;7853;52.186;5.948;2023-04-25T05:04:35;2.92;;;1.66;;
15502;SDS011;7853;52.186;5.948;2023-04-25T05:05:35;4.43;;;1.64;;
15502;SDS011;7853;52.186;5.948;2023-04-25T05:06:35;2.86;;;1.49;;
15502;SDS011;7853;52.186;5.948;2023-04-25T05:07:35;3.45;;;1.71;;
15502;SDS011;7853;52.186;5.948;2023-04-25T05:08:35;3.88;;;1.56;;
15502;SDS011;7853;52.186;5.948;2023-04-25T05:09:35;3.50;;;1.52;;
15502;SDS011;7853;52.186;5.948;2023-04-25T05:10:35;4.34;;;1.99;;
15502;SDS011;7853;52.186;5.948;2023-04-25T05:11:35;5.07;;;1.73;;
15502;SDS011;7853;52.186;5.948;2023-04-25T05:12:34;3.94;;;1.60;;
15502;SDS011;7853;52.186;5.948;2023-04-25T05:13:35;3.88;;;1.80;;
15502;SDS011;7853;52.186;5.948;2023-04-25T05:14:35;4.52;;;1.62;;
15502;SDS011;7853;52.186;5.948;2023-04-25T05:15:34;3.41;;;1.68;;
15502;SDS011;7853;52.186;5.948;2023-04-25T05:16:35;4.09;;;1.78;;
15502;SDS011;7853;52.186;5.948;2023-04-25T05:17:35;4.37;;;1.48;;
15502;SDS011;7853;52.186;5.948;2023-04-25T05:18:35;3.66;;;1.24;;
15502;SDS011;7853;52.186;5.948;2023-04-25T05:19:35;3.67;;;1.38;;
15502;SDS011;7853;52.186;5.948;2023-04-25T05:20:35;3.60;;;1.29;;
15502;SDS011;7853;52.186;5.948;2023-04-25T05:21:35;3.03;;;1.44;;
15502;SDS011;7853;52.186;5.948;2023-04-25T05:22:34;2.38;;;1.42;;
15502;SDS011;7853;52.186;5.948;2023-04-25T05:23:35;3.42;;;1.32;;
15502;SDS011;7853;52.186;5.948;2023-04-25T05:24:35;2.17;;;1.22;;
15502;SDS011;7853;52.186;5.948;2023-04-25T05:25:34;2.84;;;1.19;;
15502;SDS011;7853;52.186;5.948;2023-04-25T05:26:35;3.77;;;1.25;;
15502;SDS011;7853;52.186;5.948;2023-04-25T05:27:35;3.15;;;1.09;;
15502;SDS011;7853;52.186;5.948;2023-04-25T05:28:35;2.53;;;1.28;;
15502;SDS011;7853;52.186;5.948;2023-04-25T05:29:35;2.13;;;1.24;;
15502;SDS011;7853;52.186;5.948;2023-04-25T05:30:35;3.17;;;1.21;;
15502;SDS011;7853;52.186;5.948;2023-04-25T05:31:35;2.15;;;1.33;;
15502;SDS011;7853;52.186;5.948;2023-04-25T05:32:35;4.32;;;1.40;;
15502;SDS011;7853;52.186;5.948;2023-04-25T05:33:35;2.42;;;1.27;;
15502;SDS011;7853;52.186;5.948;2023-04-25T05:34:35;3.23;;;1.36;;
15502;SDS011;7853;52.186;5.948;2023-04-25T05:35:35;3.74;;;1.38;;
15502;SDS011;7853;52.186;5.948;2023-04-25T05:36:35;2.81;;;1.27;;
15502;SDS011;7853;52.186;5.948;2023-04-25T05:37:35;2.97;;;1.58;;
15502;SDS011;7853;52.186;5.948;2023-04-25T05:38:35;2.94;;;1.42;;
15502;SDS011;7853;52.186;5.948;2023-04-25T05:39:35;3.62;;;1.56;;
15502;SDS011;7853;52.186;5.948;2023-04-25T05:40:35;3.11;;;1.50;;
15502;SDS011;7853;52.186;5.948;2023-04-25T05:41:35;2.30;;;1.29;;
15502;SDS011;7853;52.186;5.948;2023-04-25T05:42:35;2.15;;;1.28;;
15502;SDS011;7853;52.186;5.948;2023-04-25T05:43:34;3.18;;;1.13;;
15502;SDS011;7853;52.186;5.948;2023-04-25T05:44:35;3.31;;;1.27;;
15502;SDS011;7853;52.186;5.948;2023-04-25T05:45:35;2.56;;;1.23;;
15502;SDS011;7853;52.186;5.948;2023-04-25T05:46:35;3.91;;;1.24;;
15502;SDS011;7853;52.186;5.948;2023-04-25T05:47:37;3.40;;;1.61;;
15502;SDS011;7853;52.186;5.948;2023-04-25T05:48:35;2.99;;;1.25;;
15502;SDS011;7853;52.186;5.948;2023-04-25T05:49:35;3.22;;;1.29;;
15502;SDS011;7853;52.186;5.948;2023-04-25T05:50:35;2.45;;;1.36;;
15502;SDS011;7853;52.186;5.948;2023-04-25T05:51:35;2.78;;;1.32;;
15502;SDS011;7853;52.186;5.948;2023-04-25T05:52:35;1.98;;;1.26;;
15502;SDS011;7853;52.186;5.948;2023-04-25T05:53:35;2.86;;;1.29;;
15502;SDS011;7853;52.186;5.948;2023-04-25T05:54:35;3.61;;;1.21;;
15502;SDS011;7853;52.186;5.948;2023-04-25T05:55:35;2.43;;;1.15;;
15502;SDS011;7853;52.186;5.948;2023-04-25T05:56:34;3.11;;;1.26;;
15502;SDS011;7853;52.186;5.948;2023-04-25T05:57:35;4.21;;;1.31;;
15502;SDS011;7853;52.186;5.948;2023-04-25T05:58:35;2.18;;;1.21;;
15502;SDS011;7853;52.186;5.948;2023-04-25T05:59:34;2.26;;;1.16;;
15502;SDS011;7853;52.186;5.948;2023-04-25T06:00:35;2.45;;;1.33;;
15502;SDS011;7853;52.186;5.948;2023-04-25T06:01:35;2.79;;;1.28;;
15502;SDS011;7853;52.186;5.948;2023-04-25T06:02:35;3.11;;;1.30;;
15502;SDS011;7853;52.186;5.948;2023-04-25T06:03:35;3.15;;;1.11;;
15502;SDS011;7853;52.186;5.948;2023-04-25T06:04:35;2.69;;;1.37;;
15502;SDS011;7853;52.186;5.948;2023-04-25T06:05:34;3.05;;;1.50;;
15502;SDS011;7853;52.186;5.948;2023-04-25T06:06:35;3.17;;;1.36;;
15502;SDS011;7853;52.186;5.948;2023-04-25T06:07:35;2.96;;;1.13;;